createdAt,value
2022-10-18T00:02:20.259Z,9.57
2022-10-18T00:04:47.806Z,10.63
2022-10-18T00:07:15.127Z,9.80
2022-10-18T00:09:42.457Z,10.02
2022-10-18T00:12:09.679Z,9.93
2022-10-18T00:14:36.938Z,10.15
2022-10-18T00:17:04.417Z,9.98
2022-10-18T00:19:31.604Z,10.73
2022-10-18T00:21:58.796Z,10.00
2022-10-18T00:24:25.995Z,10.05
2022-10-18T00:26:53.165Z,9.73
2022-10-18T00:29:20.365Z,10.63
2022-10-18T00:31:47.587Z,10.55
2022-10-18T00:34:16.332Z,11.05
2022-10-18T00:36:44.288Z,10.15
2022-10-18T00:39:15.547Z,9.45
2022-10-18T00:41:42.802Z,9.35
2022-10-18T00:44:12.594Z,9.90
2022-10-18T00:46:41.019Z,10.07
2022-10-18T00:49:13.388Z,9.80
2022-10-18T00:51:44.941Z,9.30
2022-10-18T00:54:13.090Z,10.07
2022-10-18T00:56:40.469Z,9.85
2022-10-18T00:59:07.974Z,9.23
2022-10-18T01:01:35.235Z,9.43
2022-10-18T01:04:02.595Z,9.05
2022-10-18T01:06:30.100Z,8.93
2022-10-18T01:09:28.558Z,9.02
2022-10-18T01:12:14.607Z,9.00
2022-10-18T01:14:48.137Z,8.75
2022-10-18T01:17:44.391Z,8.43
2022-10-18T01:20:17.804Z,8.55
2022-10-18T01:23:01.530Z,8.05
2022-10-18T01:25:56.329Z,8.43
2022-10-18T01:28:39.460Z,7.85
2022-10-18T01:31:15.003Z,7.85
2022-10-18T01:36:27.484Z,7.65
2022-10-18T01:38:57.791Z,7.88
2022-10-18T01:41:27.031Z,7.88
2022-10-18T01:43:57.396Z,7.85
2022-10-18T01:46:26.234Z,7.53
2022-10-18T01:48:54.707Z,7.28
2022-10-18T01:51:29.669Z,8.35
2022-10-18T01:53:57.185Z,7.72
2022-10-18T01:56:34.437Z,7.85
2022-10-18T01:59:07.836Z,7.10
2022-10-18T02:01:37.859Z,7.63
2022-10-18T02:04:08.242Z,7.53
2022-10-18T02:06:37.692Z,7.97
2022-10-18T02:09:17.192Z,7.35
2022-10-18T02:11:45.834Z,7.40
2022-10-18T02:14:14.681Z,7.70
2022-10-18T02:16:46.636Z,7.63
2022-10-18T02:19:16.559Z,7.40
2022-10-18T02:21:44.520Z,7.60
2022-10-18T02:24:13.692Z,7.38
2022-10-18T02:26:41.189Z,7.63
2022-10-18T02:29:08.870Z,7.38
2022-10-18T02:31:50.187Z,7.43
2022-10-18T02:34:29.576Z,7.55
2022-10-18T02:37:00.960Z,7.03
2022-10-18T02:39:33.442Z,7.78
2022-10-18T02:42:00.812Z,7.47
2022-10-18T02:44:28.233Z,7.47
2022-10-18T02:46:55.493Z,7.95
2022-10-18T02:49:22.779Z,7.32
2022-10-18T02:51:50.045Z,7.82
2022-10-18T02:54:17.252Z,7.18
2022-10-18T02:56:44.750Z,7.18
2022-10-18T02:59:12.282Z,7.45
2022-10-18T03:01:39.585Z,7.25
2022-10-18T03:04:07.244Z,7.57
2022-10-18T03:06:34.643Z,7.70
2022-10-18T03:09:06.098Z,7.53
2022-10-18T03:11:33.682Z,7.60
2022-10-18T03:14:00.905Z,7.75
2022-10-18T03:16:28.111Z,7.47
2022-10-18T03:18:55.376Z,6.95
2022-10-18T03:21:22.592Z,8.00
2022-10-18T03:23:49.804Z,7.60
2022-10-18T03:26:17.046Z,8.00
2022-10-18T03:28:44.327Z,7.53
2022-10-18T03:31:11.642Z,7.75
2022-10-18T03:33:38.909Z,7.53
2022-10-18T03:36:06.237Z,7.47
2022-10-18T03:38:33.466Z,7.53
2022-10-18T03:41:00.669Z,7.50
2022-10-18T03:43:27.994Z,7.40
2022-10-18T03:45:55.331Z,7.72
2022-10-18T03:48:22.541Z,7.78
2022-10-18T03:50:49.802Z,7.60
2022-10-18T03:53:16.999Z,7.88
2022-10-18T03:55:44.283Z,7.07
2022-10-18T03:58:11.558Z,7.35
2022-10-18T04:00:38.742Z,7.90
2022-10-18T04:03:05.965Z,8.00
2022-10-18T04:05:34.488Z,7.25
2022-10-18T04:08:01.699Z,7.75
2022-10-18T04:10:29.029Z,7.20
2022-10-18T04:12:56.276Z,7.82
2022-10-18T04:15:23.449Z,7.38
2022-10-18T04:17:50.703Z,7.93
2022-10-18T04:20:18.101Z,8.25
2022-10-18T04:22:45.281Z,7.30
2022-10-18T04:25:12.530Z,7.63
2022-10-18T04:27:39.668Z,6.85
2022-10-18T04:30:07.411Z,7.25
2022-10-18T04:32:35.487Z,6.90
2022-10-18T04:35:03.072Z,6.70
2022-10-18T04:37:30.580Z,6.93
2022-10-18T04:39:58.403Z,7.18
2022-10-18T04:42:25.755Z,6.90
2022-10-18T04:44:52.960Z,6.43
2022-10-18T04:47:20.289Z,7.25
2022-10-18T04:49:47.466Z,6.90
2022-10-18T04:52:14.645Z,7.25
2022-10-18T04:54:41.868Z,6.90
2022-10-18T04:57:09.168Z,6.93
2022-10-18T04:59:37.187Z,7.38
2022-10-18T05:02:04.866Z,7.32
2022-10-18T05:04:32.224Z,7.72
2022-10-18T05:06:59.530Z,7.43
2022-10-18T05:09:26.760Z,8.13
2022-10-18T05:11:53.944Z,8.05
2022-10-18T05:14:21.204Z,7.72
2022-10-18T05:16:48.390Z,8.07
2022-10-18T05:19:15.604Z,8.07
2022-10-18T05:21:42.821Z,7.70
2022-10-18T05:24:12.407Z,7.68
2022-10-18T05:26:39.750Z,7.78
2022-10-18T05:29:07.346Z,7.47
2022-10-18T05:31:34.603Z,7.40
2022-10-18T05:34:01.983Z,7.30
2022-10-18T05:36:29.168Z,7.35
2022-10-18T05:38:58.665Z,8.45
2022-10-18T05:41:28.365Z,7.28
2022-10-18T05:43:55.538Z,7.97
2022-10-18T05:46:22.756Z,7.30
2022-10-18T05:48:51.061Z,7.15
2022-10-18T05:51:21.393Z,6.22
2022-10-18T05:53:48.697Z,5.70
2022-10-18T05:56:15.921Z,5.72
2022-10-18T05:58:43.342Z,5.68
2022-10-18T06:01:11.111Z,5.93
2022-10-18T06:03:38.384Z,5.25
2022-10-18T06:06:10.195Z,4.80
2022-10-18T06:08:38.305Z,5.05
2022-10-18T06:11:15.625Z,4.80
2022-10-18T06:13:43.813Z,4.50
2022-10-18T06:16:11.474Z,4.25
2022-10-18T06:18:39.048Z,4.13
2022-10-18T06:21:06.735Z,4.45
2022-10-18T06:23:34.142Z,4.00
2022-10-18T06:26:02.589Z,4.13
2022-10-18T06:28:30.412Z,4.05
2022-10-18T06:30:57.942Z,3.67
2022-10-18T06:33:25.253Z,3.53
2022-10-18T06:35:56.614Z,3.40
2022-10-18T06:38:23.837Z,3.20
2022-10-18T06:40:51.199Z,3.42
2022-10-18T06:43:21.507Z,3.40
2022-10-18T06:45:49.380Z,3.22
2022-10-18T06:48:16.846Z,2.95
2022-10-18T06:50:51.113Z,3.22
2022-10-18T06:53:18.380Z,3.10
2022-10-18T06:55:46.906Z,3.33
2022-10-18T06:58:14.142Z,3.30
2022-10-18T07:00:41.441Z,3.00
2022-10-18T07:03:08.935Z,2.80
2022-10-18T07:05:36.258Z,2.88
2022-10-18T07:08:03.617Z,2.90
2022-10-18T07:10:30.882Z,2.95
2022-10-18T07:13:13.554Z,3.17
2022-10-18T07:15:45.348Z,3.25
2022-10-18T07:18:12.539Z,2.83
2022-10-18T07:20:39.930Z,2.70
2022-10-18T07:23:08.978Z,3.58
2022-10-18T07:25:36.311Z,3.17
2022-10-18T07:28:03.567Z,3.20
2022-10-18T07:30:30.783Z,2.80
2022-10-18T07:32:58.008Z,3.13
2022-10-18T07:35:25.177Z,3.15
2022-10-18T07:37:52.533Z,3.28
2022-10-18T07:40:19.745Z,3.30
2022-10-18T07:42:47.019Z,3.10
2022-10-18T07:45:14.225Z,3.50
2022-10-18T07:47:41.740Z,3.08
2022-10-18T07:50:09.285Z,3.33
2022-10-18T07:52:36.532Z,3.22
2022-10-18T07:55:03.828Z,3.15
2022-10-18T07:57:31.404Z,3.22
2022-10-18T07:59:58.863Z,3.30
2022-10-18T08:02:26.136Z,3.40
2022-10-18T08:04:53.362Z,3.22
2022-10-18T08:07:20.560Z,3.28
2022-10-18T08:09:47.787Z,3.40
2022-10-18T08:12:15.634Z,3.20
2022-10-18T08:14:42.825Z,3.60
2022-10-18T08:17:10.203Z,3.28
2022-10-18T08:19:37.532Z,3.63
2022-10-18T08:22:04.684Z,3.60
2022-10-18T08:24:32.005Z,3.17
2022-10-18T08:26:59.188Z,3.03
2022-10-18T08:29:29.231Z,3.40
2022-10-18T08:31:58.807Z,4.05
2022-10-18T08:34:26.045Z,3.72
2022-10-18T08:36:53.361Z,3.33
2022-10-18T08:39:20.613Z,2.83
2022-10-18T08:41:57.882Z,2.72
2022-10-18T08:44:27.491Z,3.17
2022-10-18T08:47:11.929Z,2.70
2022-10-18T08:49:47.068Z,3.00
2022-10-18T08:52:20.937Z,3.17
2022-10-18T08:54:54.117Z,3.05
2022-10-18T08:57:22.380Z,3.03
2022-10-18T08:59:49.654Z,2.80
2022-10-18T09:02:21.448Z,3.25
2022-10-18T09:05:01.608Z,2.67
2022-10-18T09:07:34.591Z,2.63
2022-10-18T09:10:19.554Z,2.50
2022-10-18T09:12:54.184Z,3.17
2022-10-18T09:15:40.184Z,2.67
2022-10-18T09:18:29.286Z,2.70
2022-10-18T09:21:00.865Z,2.20
2022-10-18T09:23:48.340Z,2.55
2022-10-18T09:26:22.817Z,1.75
2022-10-18T09:29:22.634Z,1.73
2022-10-18T09:31:50.132Z,2.25
2022-10-18T09:34:40.621Z,2.00
2022-10-18T09:37:12.751Z,1.63
2022-10-18T09:39:40.416Z,1.48
2022-10-18T09:42:13.670Z,1.63
2022-10-18T09:44:45.049Z,1.50
2022-10-18T09:47:18.316Z,1.60
2022-10-18T09:49:51.778Z,1.70
2022-10-18T09:52:21.037Z,1.60
2022-10-18T09:54:55.059Z,1.73
2022-10-18T09:57:33.128Z,1.48
2022-10-18T10:00:01.137Z,1.20
2022-10-18T10:02:28.433Z,1.30
2022-10-18T10:04:56.286Z,1.23
2022-10-18T10:07:31.063Z,1.40
2022-10-18T10:10:20.764Z,1.20
2022-10-18T10:12:48.528Z,1.50
2022-10-18T10:15:23.239Z,1.30
2022-10-18T10:18:04.299Z,1.48
2022-10-18T10:20:31.554Z,1.30
2022-10-18T10:23:13.870Z,1.20
2022-10-18T10:25:41.714Z,1.55
2022-10-18T10:28:15.842Z,1.40
2022-10-18T10:30:43.103Z,1.40
2022-10-18T10:33:30.272Z,1.83
2022-10-18T10:36:01.352Z,1.55
2022-10-18T10:38:29.783Z,1.40
2022-10-18T10:40:57.350Z,1.20
2022-10-18T10:43:44.543Z,0.95
2022-10-18T10:46:16.024Z,1.30
2022-10-18T10:49:34.607Z,1.15
2022-10-18T10:52:02.511Z,1.20
2022-10-18T10:54:39.035Z,1.30
2022-10-18T10:57:11.230Z,1.42
2022-10-18T10:59:47.441Z,1.30
2022-10-18T11:02:23.448Z,1.00
2022-10-18T11:04:55.701Z,1.20
2022-10-18T11:07:34.015Z,1.08
2022-10-18T11:10:07.244Z,1.25
2022-10-18T11:12:40.616Z,1.40
2022-10-18T11:15:12.031Z,1.17
2022-10-18T11:17:58.122Z,1.17
2022-10-18T11:20:43.758Z,1.20
2022-10-18T11:23:17.923Z,1.10
2022-10-18T11:25:50.032Z,1.75
2022-10-18T11:28:24.877Z,1.25
2022-10-18T11:30:59.228Z,1.00
2022-10-18T11:34:03.474Z,1.20
2022-10-18T11:36:36.780Z,1.75
2022-10-18T11:39:09.760Z,1.55
2022-10-18T11:41:44.420Z,1.33
2022-10-18T11:44:33.559Z,1.10
2022-10-18T11:47:09.717Z,1.20
2022-10-18T11:50:08.753Z,1.35
2022-10-18T11:52:48.740Z,1.10
2022-10-18T11:55:32.777Z,2.30
2022-10-18T11:58:00.542Z,1.05
2022-10-18T12:00:33.989Z,1.30
2022-10-18T12:03:16.678Z,1.40
2022-10-18T12:05:45.246Z,1.25
2022-10-18T12:08:24.078Z,1.40
2022-10-18T12:11:07.951Z,1.00
2022-10-18T12:13:49.831Z,1.00
2022-10-18T12:16:28.728Z,1.08
2022-10-18T12:19:22.075Z,1.17
2022-10-18T12:21:53.329Z,1.10
2022-10-18T12:24:22.245Z,1.13
2022-10-18T12:26:51.448Z,1.10
2022-10-18T12:29:30.553Z,1.30
2022-10-18T12:32:03.962Z,0.88
2022-10-18T12:34:43.481Z,1.13
2022-10-18T12:37:17.710Z,1.10
2022-10-18T12:40:18.474Z,0.90
2022-10-18T12:42:48.180Z,1.20
2022-10-18T12:45:25.395Z,1.00
2022-10-18T12:47:52.945Z,0.70
2022-10-18T12:50:26.132Z,0.85
2022-10-18T12:53:03.715Z,1.23
2022-10-18T12:55:32.540Z,1.00
2022-10-18T12:57:59.931Z,1.10
2022-10-18T13:00:30.234Z,1.13
2022-10-18T13:03:12.303Z,0.90
2022-10-18T13:08:28.757Z,1.17
2022-10-18T13:11:02.019Z,1.10
2022-10-18T13:13:42.168Z,0.90
2022-10-18T13:16:24.458Z,0.80
2022-10-18T13:18:51.670Z,0.90
2022-10-18T13:21:27.632Z,1.00
2022-10-18T13:24:03.697Z,0.98
2022-10-18T13:26:36.971Z,0.98
2022-10-18T13:29:07.084Z,0.98
2022-10-18T13:32:07.005Z,1.05
2022-10-18T13:34:38.488Z,1.00
2022-10-18T13:37:07.291Z,0.88
2022-10-18T13:39:34.582Z,1.10
2022-10-18T13:42:01.764Z,0.70
2022-10-18T13:44:37.854Z,0.93
2022-10-18T13:47:05.176Z,0.95
2022-10-18T13:49:41.378Z,1.20
2022-10-18T13:52:11.560Z,0.88
2022-10-18T13:54:57.115Z,1.10
2022-10-18T13:57:45.984Z,0.80
2022-10-18T14:00:31.944Z,1.00
2022-10-18T14:03:02.563Z,1.02
2022-10-18T14:05:50.338Z,0.85
2022-10-18T14:11:08.770Z,1.20
2022-10-18T14:13:47.810Z,0.77
2022-10-18T14:16:25.621Z,0.80
2022-10-18T14:18:55.939Z,0.68
2022-10-18T14:21:31.068Z,0.82
2022-10-18T14:26:29.273Z,0.90
2022-10-18T14:29:04.995Z,1.00
2022-10-18T14:34:00.585Z,1.15
2022-10-18T14:36:29.893Z,1.10
2022-10-18T14:38:58.017Z,1.13
2022-10-18T14:41:26.259Z,1.58
2022-10-18T14:43:54.778Z,1.38
2022-10-18T14:46:26.645Z,1.20
2022-10-18T14:48:59.182Z,1.30
2022-10-18T14:51:27.407Z,1.15
2022-10-18T14:53:55.037Z,1.10
2022-10-18T14:56:32.572Z,1.10
2022-10-18T14:59:02.651Z,1.52
2022-10-18T15:01:31.423Z,1.42
2022-10-18T15:04:00.221Z,1.38
2022-10-18T15:06:27.619Z,1.10
2022-10-18T15:08:59.152Z,1.40
2022-10-18T15:11:27.250Z,1.85
2022-10-18T15:13:58.887Z,1.35
2022-10-18T15:16:28.419Z,1.10
2022-10-18T15:19:22.941Z,1.40
2022-10-18T15:22:03.261Z,0.88
2022-10-18T15:24:42.124Z,1.08
2022-10-18T15:27:09.358Z,1.20
2022-10-18T15:29:37.768Z,1.02
2022-10-18T15:32:07.847Z,1.00
2022-10-18T15:34:35.032Z,1.00
2022-10-18T15:37:15.539Z,1.13
2022-10-18T15:39:42.816Z,1.65
2022-10-18T15:42:29.925Z,1.00
2022-10-18T15:44:57.184Z,1.13
2022-10-18T15:47:24.967Z,1.30
2022-10-18T15:49:58.893Z,1.30
2022-10-18T15:52:35.168Z,1.10
2022-10-18T15:55:40.514Z,1.20
2022-10-18T15:58:12.943Z,1.50
2022-10-18T16:00:40.197Z,1.13
2022-10-18T16:03:08.970Z,1.35
2022-10-18T16:05:37.159Z,1.05
2022-10-18T16:08:04.493Z,1.35
2022-10-18T16:10:31.711Z,1.05
2022-10-18T16:12:58.903Z,1.15
2022-10-18T16:15:26.079Z,1.40
2022-10-18T16:17:53.295Z,1.23
2022-10-18T16:20:25.083Z,1.35
2022-10-18T16:22:52.262Z,1.40
2022-10-18T16:25:19.482Z,1.40
2022-10-18T16:27:46.666Z,1.70
2022-10-18T16:30:15.705Z,1.70
2022-10-18T16:32:42.890Z,1.95
2022-10-18T16:35:12.077Z,2.08
2022-10-18T16:37:39.862Z,2.05
2022-10-18T16:40:22.230Z,2.10
2022-10-18T16:42:49.479Z,2.38
2022-10-18T16:45:16.764Z,2.35
2022-10-18T16:47:44.047Z,1.73
2022-10-18T16:50:19.668Z,2.35
2022-10-18T16:52:46.948Z,2.10
2022-10-18T16:55:21.339Z,5.72
2022-10-18T16:57:50.256Z,4.07
2022-10-18T17:00:22.248Z,5.53
2022-10-18T17:02:49.751Z,4.07
2022-10-18T17:05:17.466Z,4.75
2022-10-18T17:07:45.094Z,4.35
2022-10-18T17:10:13.680Z,3.30
2022-10-18T17:12:40.906Z,3.00
2022-10-18T17:15:08.798Z,3.00
2022-10-18T17:17:36.297Z,2.97
2022-10-18T17:20:04.408Z,3.08
2022-10-18T17:22:31.745Z,2.65
2022-10-18T17:24:58.943Z,2.35
2022-10-18T17:27:26.422Z,2.42
2022-10-18T17:29:53.597Z,2.47
2022-10-18T17:32:20.877Z,2.15
2022-10-18T17:34:48.054Z,2.35
2022-10-18T17:37:15.332Z,2.50
2022-10-18T17:39:42.536Z,3.00
2022-10-18T17:42:09.767Z,2.65
2022-10-18T17:44:37.142Z,2.30
2022-10-18T17:47:04.411Z,2.70
2022-10-18T17:49:31.714Z,5.07
2022-10-18T17:52:01.163Z,3.55
2022-10-18T17:54:31.907Z,3.60
2022-10-18T17:56:59.300Z,4.32
2022-10-18T17:59:26.527Z,3.40
2022-10-18T18:01:54.018Z,3.75
2022-10-18T18:04:21.308Z,3.10
2022-10-18T18:06:49.064Z,3.15
2022-10-18T18:09:17.078Z,3.08
2022-10-18T18:11:45.298Z,3.10
2022-10-18T18:14:12.605Z,2.60
2022-10-18T18:16:41.383Z,2.83
2022-10-18T18:19:10.089Z,3.53
2022-10-18T18:21:37.812Z,3.85
2022-10-18T18:24:05.303Z,4.85
2022-10-18T18:26:33.553Z,7.75
2022-10-18T18:31:38.780Z,8.07
2022-10-18T18:34:09.544Z,5.97
2022-10-18T18:36:36.755Z,5.68
2022-10-18T18:39:05.609Z,5.13
2022-10-18T18:41:33.254Z,4.65
2022-10-18T18:44:01.566Z,4.75
2022-10-18T18:46:32.839Z,3.83
2022-10-18T18:49:00.423Z,3.85
2022-10-18T18:51:27.664Z,3.60
2022-10-18T18:53:54.896Z,3.13
2022-10-18T18:56:23.526Z,4.13
2022-10-18T18:58:51.697Z,3.60
2022-10-18T19:01:20.563Z,3.50
2022-10-18T19:03:49.560Z,3.75
2022-10-18T19:06:17.928Z,3.85
2022-10-18T19:08:45.842Z,4.30
2022-10-18T19:11:14.870Z,4.45
2022-10-18T19:13:42.200Z,4.35
2022-10-18T19:16:23.437Z,5.60
2022-10-18T19:18:51.844Z,4.88
2022-10-18T19:21:19.144Z,5.00
2022-10-18T19:23:46.348Z,6.03
2022-10-18T19:26:14.444Z,7.70
2022-10-18T19:28:41.707Z,8.52
2022-10-18T19:31:08.952Z,8.98
2022-10-18T19:33:48.354Z,6.97
2022-10-18T19:36:16.138Z,7.20
2022-10-18T19:38:43.362Z,6.45
2022-10-18T19:41:10.587Z,6.35
2022-10-18T19:43:37.799Z,5.57
2022-10-18T19:46:05.583Z,5.78
2022-10-18T19:48:33.053Z,5.47
2022-10-18T19:51:04.196Z,5.25
2022-10-18T19:53:31.516Z,4.95
2022-10-18T19:55:59.599Z,5.05
2022-10-18T19:58:26.841Z,5.40
2022-10-18T20:00:54.627Z,5.07
2022-10-18T20:03:22.303Z,5.32
2022-10-18T20:05:59.664Z,4.40
2022-10-18T20:08:27.454Z,4.80
2022-10-18T20:10:55.208Z,4.10
2022-10-18T20:13:22.649Z,4.80
2022-10-18T20:15:50.643Z,4.53
2022-10-18T20:18:18.782Z,4.75
2022-10-18T20:20:48.184Z,5.35
2022-10-18T20:23:16.507Z,4.93
2022-10-18T20:25:44.132Z,4.50
2022-10-18T20:28:11.349Z,4.88
2022-10-18T20:30:38.543Z,5.28
2022-10-18T20:33:05.734Z,4.70
2022-10-18T20:35:33.021Z,4.40
2022-10-18T20:38:00.218Z,4.38
2022-10-18T20:40:27.389Z,4.10
2022-10-18T20:42:54.598Z,3.90
2022-10-18T20:45:21.826Z,4.25
2022-10-18T20:47:49.089Z,3.80
2022-10-18T20:50:16.290Z,3.88
2022-10-18T20:52:44.924Z,3.92
2022-10-18T20:55:13.073Z,3.95
2022-10-18T20:57:40.723Z,4.15
2022-10-18T21:00:10.052Z,4.22
2022-10-18T21:02:37.206Z,4.90
2022-10-18T21:05:04.628Z,4.80
2022-10-18T21:07:32.176Z,4.95
2022-10-18T21:09:59.492Z,4.70
2022-10-18T21:12:28.869Z,4.20
2022-10-18T21:14:56.627Z,4.80
2022-10-18T21:17:23.877Z,4.45
2022-10-18T21:19:51.055Z,4.70
2022-10-18T21:22:18.269Z,4.68
2022-10-18T21:24:45.467Z,4.57
2022-10-18T21:27:13.457Z,4.13
2022-10-18T21:29:40.724Z,4.22
2022-10-18T21:32:07.882Z,4.10
2022-10-18T21:34:35.166Z,3.70
2022-10-18T21:37:02.357Z,3.63
2022-10-18T21:39:30.036Z,3.53
2022-10-18T21:41:57.433Z,3.55
2022-10-18T21:44:24.637Z,3.58
2022-10-18T21:46:52.053Z,3.67
2022-10-18T21:49:19.291Z,3.45
2022-10-18T21:51:46.528Z,3.78
2022-10-18T21:54:15.347Z,3.40
2022-10-18T21:56:42.623Z,3.30
2022-10-18T21:59:12.030Z,3.40
2022-10-18T22:01:39.677Z,3.67
2022-10-18T22:04:08.124Z,3.40
2022-10-18T22:06:36.540Z,3.33
2022-10-18T22:09:05.741Z,3.45
2022-10-18T22:11:34.481Z,3.38
2022-10-18T22:14:01.712Z,3.33
2022-10-18T22:16:29.092Z,3.50
2022-10-18T22:19:00.390Z,3.28
2022-10-18T22:21:28.269Z,3.60
2022-10-18T22:23:59.144Z,3.40
2022-10-18T22:26:40.295Z,3.45
2022-10-18T22:29:20.691Z,3.17
2022-10-18T22:31:49.661Z,3.67
2022-10-18T22:34:18.591Z,3.50
2022-10-18T22:36:46.026Z,3.58
2022-10-18T22:39:14.450Z,3.60
2022-10-18T22:41:42.360Z,3.42
2022-10-18T22:44:10.256Z,3.70
2022-10-18T22:46:37.452Z,3.47
2022-10-18T22:49:04.984Z,3.60
2022-10-18T22:51:32.237Z,3.78
2022-10-18T22:53:59.467Z,3.30
2022-10-18T22:56:26.721Z,3.53
2022-10-18T22:58:54.001Z,3.90
2022-10-18T23:01:24.109Z,3.95
2022-10-18T23:03:58.229Z,3.88
2022-10-18T23:06:33.238Z,3.85
2022-10-18T23:09:01.150Z,3.85
2022-10-18T23:11:29.082Z,3.70
2022-10-18T23:13:56.301Z,3.85
2022-10-18T23:16:24.100Z,4.57
2022-10-18T23:18:52.557Z,3.92
2022-10-18T23:21:20.264Z,3.53
2022-10-18T23:23:47.880Z,4.47
2022-10-18T23:26:16.380Z,3.63
2022-10-18T23:28:44.577Z,4.10
2022-10-18T23:31:18.085Z,4.30
2022-10-18T23:33:46.230Z,4.70
2022-10-18T23:36:13.801Z,4.47
2022-10-18T23:38:41.225Z,4.47
2022-10-18T23:41:08.994Z,4.68
2022-10-18T23:43:36.719Z,4.22
2022-10-18T23:46:04.290Z,4.40
2022-10-18T23:48:31.469Z,4.57
2022-10-18T23:50:58.832Z,4.38
2022-10-18T23:53:26.344Z,4.28
2022-10-18T23:55:57.753Z,4.40
2022-10-18T23:58:25.535Z,4.70
